This is the latest recevied weather packets stored in our database for station/object DG6YGE-6. If no packets are shown the sender has not sent any weather packets the latest 10 day(s).
| Time | Temp. | Humidity | Pressure | Rain* | Wind** | Luminosity | Snow |
|---|---|---|---|---|---|---|---|
| 1788013751 | 23.89° C | 56% | 1009.4 hPa | 0 mm | - | 554 W/m² | - |
| 1788013151 | 23.89° C | 56% | 1009.4 hPa | 0 mm | - | 533 W/m² | - |
| 1788012550 | 23.89° C | 56% | 1009.4 hPa | 0 mm | - | 410 W/m² | - |
| 1788011951 | 23.33° C | 58% | 1009.6 hPa | 0 mm | - | 586 W/m² | - |
| 1788011351 | 23.33° C | 58% | 1009.6 hPa | 0 mm | - | 161 W/m² | - |
| 1788010754 | 23.33° C | 59% | 1009.6 hPa | 0 mm | - | 238 W/m² | - |
| 1788010151 | 23.33° C | 58% | 1009.6 hPa | 0 mm | - | 280 W/m² | - |
| 1788009551 | 23.33° C | 61% | 1009.7 hPa | 0 mm | - | 395 W/m² | - |
| 1788008951 | 23.33° C | 60% | 1009.6 hPa | 0 mm | - | 641 W/m² | - |
| 1788008351 | 23.33° C | 59% | 1009.8 hPa | 0 mm | - | 245 W/m² | - |
| 1788007751 | 22.78° C | 61% | 1009.7 hPa | 0 mm | - | 729 W/m² | - |
| 1788007151 | 22.78° C | 62% | 1009.9 hPa | 0 mm | - | 467 W/m² | - |
| 1788006551 | 22.78° C | 61% | 1009.7 hPa | 0 mm | - | 571 W/m² | - |
| 1788005951 | 22.78° C | 60% | 1009.9 hPa | 0 mm | - | 175 W/m² | - |
| 1788005351 | 23.33° C | 61% | 1009.8 hPa | 0 mm | - | 689 W/m² | - |
| 1788004751 | 22.78° C | 61% | 1009.9 hPa | 0 mm | - | 270 W/m² | - |
| 1788004150 | 22.78° C | 60% | 1009.8 hPa | 0 mm | - | 721 W/m² | - |
| 1788003550 | 22.78° C | 64% | 1009.8 hPa | 0 mm | - | 731 W/m² | - |
| 1788002950 | 22.78° C | 61% | 1009.9 hPa | 0 mm | - | 217 W/m² | - |
| 1788002350 | 22.78° C | 62% | 1009.7 hPa | 0 mm | - | 655 W/m² | - |
| 1788001750 | 22.22° C | 66% | 1009.8 hPa | 0 mm | - | 690 W/m² | - |
| 1788001151 | 22.22° C | 62% | 1009.7 hPa | 0 mm | - | 219 W/m² | - |
| 1788000550 | 22.22° C | 65% | 1009.8 hPa | 0 mm | - | 296 W/m² | - |
| 1787999951 | 22.22° C | 65% | 1009.9 hPa | 0 mm | - | 214 W/m² | - |
| 1787999351 | 22.22° C | 64% | 1009.8 hPa | 0 mm | - | 422 W/m² | - |
* Rain latest hour (hover to see other rain measurements)
** Current wind speed in m/s (hover to see current wind gust speed)